Time;durP1;ratioP1;P1;durP2;ratioP2;P2;SDS_P1;SDS_P2;PMS_P1;PMS_P2;Temp;Humidity;BMP_temperature;BMP_pressure;BME280_temperature;BME280_humidity;BME280_pressure;Samples;Min_cycle;Max_cycle;Signal;HPM_P1;HPM_P2
2023/12/16 21:39:48;;;;;;;13.10;7.10;;;;;;;;;;517164;230;40997;-71
2023/12/16 21:41:50;;;;;;;12.70;7.20;;;;;;;;;;508755;233;26330;-71
2023/12/16 21:43:55;;;;;;;16.52;6.82;;;;;;;;;;508662;233;26227;-72
2023/12/16 21:47:55;;;;;;;13.65;8.15;;;6.70;99.90;;;;;;499993;233;36763;-70
2023/12/16 21:49:56;;;;;;;11.40;7.75;;;4.80;99.90;;;;;;488965;243;28103;-70
2023/12/16 21:51:58;;;;;;;16.23;7.70;;;3.70;99.90;;;;;;488961;243;27996;-72
2023/12/16 21:53:59;;;;;;;16.67;7.95;;;3.10;99.90;;;;;;489002;243;29093;-70
2023/12/16 21:56:00;;;;;;;14.45;8.55;;;2.70;99.90;;;;;;488876;243;27509;-70
2023/12/16 21:58:01;;;;;;;15.82;8.43;;;2.50;99.90;;;;;;489018;243;27454;-70
2023/12/16 22:00:03;;;;;;;18.98;7.37;;;2.40;99.90;;;;;;489049;243;27646;-71
2023/12/16 22:02:04;;;;;;;16.37;6.85;;;2.30;99.90;;;;;;488924;243;27536;-71
2023/12/16 22:04:05;;;;;;;11.85;7.03;;;2.20;99.90;;;;;;488984;243;27476;-70
2023/12/16 22:06:06;;;;;;;15.60;7.20;;;2.20;99.90;;;;;;489061;243;27535;-70
2023/12/16 22:08:07;;;;;;;15.23;7.22;;;2.10;99.90;;;;;;489045;243;28584;-70
2023/12/16 22:10:10;;;;;;;10.15;7.37;;;2.10;99.90;;;;;;489046;243;27922;-70
2023/12/16 22:12:10;;;;;;;23.50;9.05;;;2.10;99.90;;;;;;488972;243;29174;-70
2023/12/16 22:14:11;;;;;;;18.65;9.27;;;2.00;99.90;;;;;;488970;243;27456;-70
2023/12/16 22:16:12;;;;;;;17.00;10.88;;;1.90;99.90;;;;;;489003;243;27500;-70
2023/12/16 22:18:14;;;;;;;22.62;11.57;;;1.90;99.90;;;;;;489030;243;27566;-74
2023/12/16 22:20:15;;;;;;;20.65;10.15;;;1.80;99.90;;;;;;488936;243;27452;-72
2023/12/16 22:22:16;;;;;;;19.48;9.30;;;1.80;99.90;;;;;;488923;243;27606;-72
2023/12/16 22:24:18;;;;;;;13.52;9.75;;;1.80;99.90;;;;;;489281;237;27461;-72
2023/12/16 22:26:19;;;;;;;19.92;9.13;;;1.80;99.90;;;;;;493988;240;27935;-72
2023/12/16 22:28:20;;;;;;;16.23;8.70;;;1.80;99.90;;;;;;494045;240;27973;-74
2023/12/16 22:30:21;;;;;;;14.43;9.30;;;1.70;99.90;;;;;;494015;240;29031;-73
2023/12/16 22:32:23;;;;;;;16.30;8.48;;;1.70;99.90;;;;;;493983;240;27520;-73
2023/12/16 22:34:24;;;;;;;20.80;9.23;;;1.60;99.90;;;;;;493969;240;27473;-72
2023/12/16 22:36:25;;;;;;;31.95;15.88;;;1.70;99.90;;;;;;494015;240;27466;-73
2023/12/16 22:38:26;;;;;;;19.15;11.80;;;1.70;99.90;;;;;;494073;240;27589;-73
2023/12/16 22:40:28;;;;;;;18.85;10.52;;;1.80;99.90;;;;;;494033;240;27610;-72
2023/12/16 22:42:30;;;;;;;16.30;9.57;;;1.70;99.90;;;;;;493943;240;27456;-74
2023/12/16 22:44:31;;;;;;;17.20;10.27;;;1.80;99.90;;;;;;494043;240;27618;-72
2023/12/16 22:46:32;;;;;;;18.12;9.77;;;1.80;99.90;;;;;;494060;240;28454;-72
2023/12/16 22:48:33;;;;;;;16.00;8.88;;;1.90;99.90;;;;;;494062;240;28123;-73
2023/12/16 22:50:35;;;;;;;18.85;9.23;;;1.90;99.90;;;;;;494083;240;27491;-73
2023/12/16 22:52:36;;;;;;;17.08;8.88;;;1.90;99.90;;;;;;494012;240;27462;-72
2023/12/16 22:54:37;;;;;;;18.67;9.23;;;2.00;99.90;;;;;;494070;240;27506;-72
2023/12/16 22:56:38;;;;;;;18.17;9.02;;;2.00;99.90;;;;;;494064;240;27586;-73
2023/12/16 22:58:40;;;;;;;14.68;9.10;;;2.00;99.90;;;;;;493967;240;27462;-72
2023/12/16 23:00:42;;;;;;;15.73;9.55;;;2.00;99.90;;;;;;493961;241;27482;-73
2023/12/16 23:02:42;;;;;;;16.42;8.65;;;1.90;99.90;;;;;;493225;241;27487;-72
2023/12/16 23:04:43;;;;;;;16.15;9.30;;;2.00;99.90;;;;;;493924;241;27505;-73
2023/12/16 23:06:46;;;;;;;19.77;9.27;;;2.00;99.90;;;;;;493585;241;27553;-73
2023/12/16 23:08:48;;;;;;;15.52;8.75;;;2.00;99.90;;;;;;493895;241;27553;-72
2023/12/16 23:10:47;;;;;;;19.45;9.20;;;2.00;99.90;;;;;;493825;241;28014;-73
2023/12/16 23:12:48;;;;;;;17.45;9.65;;;2.00;99.90;;;;;;493897;241;28807;-72
2023/12/16 23:14:50;;;;;;;10.13;8.00;;;2.00;99.90;;;;;;494004;241;27538;-72
2023/12/16 23:16:51;;;;;;;15.38;8.07;;;2.00;99.90;;;;;;493913;241;27938;-72
2023/12/16 23:18:52;;;;;;;14.65;8.43;;;1.90;99.90;;;;;;493979;241;28025;-72
2023/12/16 23:20:54;;;;;;;11.30;7.62;;;2.00;99.90;;;;;;493945;241;28082;-72
2023/12/16 23:22:55;;;;;;;15.70;9.00;;;2.00;99.90;;;;;;493930;241;27538;-73
2023/12/16 23:24:56;;;;;;;14.00;8.07;;;1.90;99.90;;;;;;493979;241;27566;-73
2023/12/16 23:26:58;;;;;;;14.13;9.20;;;1.90;99.90;;;;;;493967;241;27514;-73
2023/12/16 23:28:59;;;;;;;15.82;8.40;;;1.90;99.90;;;;;;493982;241;27509;-73
2023/12/16 23:31:00;;;;;;;19.50;9.23;;;1.90;99.90;;;;;;493926;240;28009;-72
2023/12/16 23:33:02;;;;;;;17.35;8.40;;;1.90;99.90;;;;;;493908;240;27970;-72
2023/12/16 23:35:03;;;;;;;15.15;8.10;;;2.00;99.90;;;;;;493971;241;27921;-72
2023/12/16 23:37:04;;;;;;;17.45;9.57;;;1.90;99.90;;;;;;493958;241;27523;-72
2023/12/16 23:39:05;;;;;;;19.08;9.20;;;2.00;99.90;;;;;;493991;241;27537;-73
2023/12/16 23:41:06;;;;;;;17.12;9.50;;;2.00;99.90;;;;;;493899;241;27457;-72
2023/12/16 23:43:08;;;;;;;22.87;9.35;;;2.00;99.90;;;;;;493887;241;27527;-72
2023/12/16 23:45:09;;;;;;;18.95;9.50;;;1.90;99.90;;;;;;493956;241;27513;-72
2023/12/16 23:47:10;;;;;;;15.88;9.20;;;2.00;99.90;;;;;;493910;241;27481;-72
2023/12/16 23:49:13;;;;;;;20.83;10.07;;;2.00;99.90;;;;;;493944;240;27509;-72
2023/12/16 23:51:15;;;;;;;17.52;9.40;;;2.00;99.90;;;;;;493545;241;27504;-72
2023/12/16 23:53:16;;;;;;;18.90;9.07;;;2.00;99.90;;;;;;493898;241;27474;-72
2023/12/16 23:55:18;;;;;;;17.77;10.70;;;1.90;99.90;;;;;;493982;241;27495;-72
2023/12/16 23:57:19;;;;;;;16.12;10.65;;;1.90;99.90;;;;;;493991;240;28726;-72
2023/12/16 23:59:20;;;;;;;19.30;11.18;;;1.80;99.90;;;;;;494024;241;27917;-73
